Latest Weather Observations for Sydney - Observatory Hill

IDN60801

Issued at 6:04 am EDT Sunday 1 February 2015 (issued every 30 minutes, with the page automatically refreshed every 10 minutes)

About weather observations | Map of weather stations | Latest weather observations for NSW | Other Formats
Station Details ID: 066062 Name: SYDNEY (OBSERVATORY HILL) Lat: -33.86 Lon: 151.21 Height: 39.0 m
Data from the previous 72 hours. | See also: Recent months at Sydney - Observatory Hill

* Apparent temperature (App Temp) for Sydney - Observatory Hill is calculated using temperature observations collected at Sydney - Observatory Hill and wind observations collected at Fort Denison, as wind observations are not currently provided for Sydney - Observatory Hill.

Date/Time
EDT
Temp
°C
App
Temp
°C
Dew
Point
Rel
Hum
%
Delta-T
°C
Wind Press
QNH
hPa
Press
MSL
hPa
Rain
since 9 am
mm
Dir
 
Spd
km/h
Gust
km/h
Spd
kts
Gust
kts
01/06:00am 19.6 19.5 16.1 80 2.1 SW 11 - 6 - 1008.5 - -
01/05:30am 19.4 19.6 15.7 79 2.2 SW 9 - 5 - 1008.0 1007.8 0.0
01/05:00am 19.7 19.5 15.8 78 2.3 SSW 11 - 6 - 1007.9 1007.7 0.0
01/04:30am 20.0 19.5 15.8 77 2.5 SSW 13 - 7 - 1008.0 1007.8 0.0
01/04:00am 20.4 20.6 15.8 75 2.8 SSW 9 - 5 - 1007.9 1007.7 0.0
01/03:30am 20.5 20.6 15.5 73 3.0 SSW 9 - 5 - 1007.9 1007.7 0.0
01/03:00am 20.6 20.1 14.9 70 3.4 SSW 11 - 6 - 1008.1 1007.9 0.0
01/02:30am 20.9 20.4 14.8 68 3.6 SSW 11 - 6 - 1008.4 1008.2 0.0
01/02:00am 21.5 21.8 13.4 60 4.7 SSW 4 - 2 - 1008.4 1008.2 0.0
01/01:30am 21.8 21.7 13.4 59 4.8 SSE 6 - 3 - 1008.6 1008.4 0.0
01/01:00am 22.2 22.7 14.1 60 4.7 SE 4 - 2 - 1008.9 1008.7 0.0
01/12:30am 22.1 22.6 14.0 60 4.7 SSE 4 - 2 - 1009.4 1009.2 0.0
01/12:00am 21.7 21.8 13.9 61 4.5 SSE 6 - 3 - 1009.5 1009.3 0.0
 
Date/Time
EDT
Temp
°C
App
Temp
°C
Dew
Point
Rel
Hum
%
Delta-T
°C
Wind Press
QNH
hPa
Press
MSL
hPa
Rain
since 9 am
mm
Dir
 
Spd
km/h
Gust
km/h
Spd
kts
Gust
kts
31/11:30pm 21.5 21.5 14.2 63 4.3 SSE 7 - 4 - 1009.5 1009.3 0.0
31/11:00pm 21.2 21.1 13.9 63 4.2 SSE 7 - 4 - 1009.5 1009.3 0.0
31/10:30pm 21.3 21.3 13.7 62 4.4 SE 6 - 3 - 1009.3 1009.1 0.0
31/10:00pm 21.9 21.8 13.8 60 4.7 SE 7 - 4 - 1009.2 1009.0 0.0
31/09:30pm 21.7 21.4 12.8 57 5.1 SE 6 - 3 - 1008.9 1008.7 0.0
31/09:00pm 21.8 20.9 12.6 56 5.2 SE 9 - 5 - 1008.4 1008.2 0.0
31/08:30pm 22.4 21.2 12.9 55 5.4 SE 11 - 6 - 1007.9 1007.7 0.0
31/08:00pm 22.8 21.8 13.3 55 5.5 ESE 11 - 6 - 1007.7 1007.5 0.0
31/07:30pm 22.9 21.4 13.1 54 5.7 SE 13 - 7 - 1007.4 1007.2 0.0
31/07:00pm 23.1 21.5 12.7 52 6.0 ESE 13 - 7 - 1007.0 1006.8 0.0
31/06:30pm 23.5 21.3 12.2 49 6.4 ESE 15 - 8 - 1006.6 1006.4 0.0
31/05:30pm 24.0 21.3 11.7 46 7.0 ESE 17 - 9 - 1006.3 1006.1 0.0
31/05:00pm 24.0 20.8 11.3 45 7.2 ESE 19 - 10 - 1006.3 1006.1 0.0
31/04:30pm 24.0 21.2 11.3 45 7.1 ESE 17 - 9 - 1006.3 1006.1 0.0
31/04:00pm 24.5 21.8 11.8 45 7.2 E 17 - 9 - 1006.2 1006.0 0.0
31/03:30pm 24.5 21.5 10.8 42 7.7 ESE 17 - 9 - 1006.1 1005.9 0.0
31/03:00pm 24.2 20.8 10.5 42 7.6 ESE 19 - 10 - 1006.0 1005.8 0.0
31/02:30pm 24.5 21.2 10.8 42 7.7 ESE 19 - 10 - 1006.1 1005.9 0.0
31/02:00pm 24.5 21.1 10.4 41 7.8 ESE 19 - 10 - 1006.4 1006.2 0.0
31/01:30pm 24.7 21.2 10.2 40 8.0 ESE 19 - 10 - 1006.6 1006.4 0.0
31/01:00pm 24.9 20.9 9.2 37 8.6 E 20 - 11 - 1006.6 1006.4 0.0
31/12:30pm 25.1 22.0 10.2 39 8.3 ESE 17 - 9 - 1006.9 1006.7 0.0
31/12:00pm 25.5 22.3 11.3 41 8.1 ESE 19 - 10 - 1007.3 1007.1 0.0
31/11:30am 25.1 21.9 9.8 38 8.4 ESE 17 - 9 - 1007.6 1007.4 0.0
31/11:00am 25.1 23.8 9.8 38 8.4 WNW 7 - 4 - 1007.9 1007.7 0.0
31/10:30am 24.1 23.8 11.4 45 7.2 NNW 4 - 2 - 1008.1 1007.9 0.0
31/10:00am 23.4 23.5 11.5 47 6.7 NW 2 - 1 - 1008.3 1008.1 0.0
31/09:30am 22.7 21.9 11.7 49 6.2 WNW 7 - 4 - 1008.2 1008.0 0.0
31/09:00am 21.4 20.7 13.1 59 4.8 WNW 9 - 5 - 1008.3 1008.1 0.0
31/08:30am 19.9 19.3 14.7 72 3.0 WNW 11 - 6 - 1008.2 1008.0 0.0
31/08:00am 18.4 17.8 15.6 84 1.7 W 13 - 7 - 1008.2 1008.0 0.0
31/07:30am 17.8 17.1 15.4 86 1.4 WNW 13 - 7 - 1007.9 1007.7 0.0
31/07:00am 17.4 16.9 15.0 86 1.4 WNW 11 - 6 - 1007.9 1007.7 0.0
31/06:30am 17.1 16.8 14.4 84 1.5 WNW 9 - 5 - 1007.6 1007.4 0.0
31/05:30am 17.5 16.7 14.0 80 2.0 W 11 - 6 - 1007.1 1006.9 0.0
31/05:00am 17.6 17.1 13.9 79 2.1 W 9 - 5 - 1007.0 1006.8 0.0
31/04:30am 18.3 18.5 13.0 71 3.0 SSW 4 - 2 - 1006.8 1006.6 0.0
31/04:00am 18.4 17.7 11.9 66 3.6 SSW 7 - 4 - 1006.7 1006.5 0.0
31/03:30am 18.6 17.5 11.9 65 3.7 SSW 9 - 5 - 1006.7 1006.5 0.0
31/03:00am 19.0 17.5 11.8 63 4.0 SSW 11 - 6 - 1006.5 1006.3 0.0
31/02:30am 18.9 17.8 11.9 64 3.9 SW 9 - 5 - 1006.6 1006.4 0.0
31/02:00am 19.2 17.9 12.5 65 3.8 SW 11 - 6 - 1006.9 1006.7 0.0
31/01:30am 19.4 18.0 13.3 68 3.5 SW 13 - 7 - 1007.2 1007.0 0.0
31/01:00am 20.1 19.7 14.0 68 3.5 SW 9 - 5 - 1007.5 1007.3 0.0
31/12:30am 20.3 19.9 14.0 67 3.6 SSW 9 - 5 - 1007.7 1007.5 0.0
31/12:00am 20.5 19.8 14.4 68 3.6 SSW 11 - 6 - 1007.8 1007.6 0.0
 
Date/Time
EDT
Temp
°C
App
Temp
°C
Dew
Point
Rel
Hum
%
Delta-T
°C
Wind Press
QNH
hPa
Press
MSL
hPa
Rain
since 9 am
mm
Dir
 
Spd
km/h
Gust
km/h
Spd
kts
Gust
kts
30/11:30pm 20.7 19.7 14.6 68 3.6 SSW 13 - 7 - 1007.8 1007.6 0.0
30/11:00pm 20.8 20.8 15.1 70 3.4 SSW 9 - 5 - 1007.9 1007.7 0.0
30/10:30pm 20.9 20.1 15.0 69 3.5 SSW 13 - 7 - 1007.8 1007.6 0.0
30/10:00pm 21.0 19.9 14.4 66 3.9 S 13 - 7 - 1007.7 1007.5 0.0
30/09:30pm 21.1 19.5 14.0 64 4.1 S 15 - 8 - 1007.5 1007.3 0.0
30/09:00pm 21.2 19.3 14.1 64 4.1 S 17 - 9 - 1007.1 1006.9 0.0
30/08:30pm 21.3 20.1 14.0 63 4.2 S 13 - 7 - 1006.7 1006.5 0.0
30/08:00pm 21.2 18.7 13.4 61 4.5 S 19 - 10 - 1006.5 1006.3 0.0
30/07:30pm 21.9 19.3 13.3 58 5.0 S 19 - 10 - 1006.1 1005.9 0.0
30/07:00pm 22.5 19.9 11.9 51 6.0 S 17 - 9 - 1005.8 1005.6 0.0
30/06:30pm 23.1 19.2 10.9 46 6.8 S 22 - 12 - 1005.3 1005.1 0.0
30/06:00pm 23.7 20.3 10.7 44 7.2 S 19 - 10 - 1005.3 1005.1 0.0
30/05:30pm 25.5 21.9 10.5 39 8.4 SSE 20 - 11 - 1005.1 1004.9 0.0
30/05:00pm 25.3 21.3 8.3 34 9.2 SE 19 - 10 - 1005.0 1004.8 0.0
30/04:30pm 26.6 22.8 9.0 33 9.6 SE 19 - 10 - 1005.2 1005.0 0.0
30/04:00pm 26.1 23.5 9.4 35 9.2 SSE 13 - 7 - 1005.4 1005.2 0.0
30/03:30pm 25.4 23.2 8.0 33 9.3 SSE 9 - 5 - 1005.5 1005.3 0.0
30/03:00pm 26.8 22.8 6.8 28 10.6 WSW 17 - 9 - 1005.6 1005.4 0.0
30/02:30pm 25.5 19.5 5.1 27 10.4 WSW 26 - 14 - 1006.0 1005.8 0.0
30/02:00pm 25.4 19.2 6.1 29 10.0 WSW 28 - 15 - 1006.5 1006.3 0.0
30/01:30pm 25.4 20.2 7.1 31 9.6 W 24 - 13 - 1006.8 1006.6 0.0
30/01:00pm 24.5 20.2 8.0 35 8.8 WSW 20 - 11 - 1007.1 1006.9 0.0
30/12:30pm 23.7 18.7 6.5 33 8.9 W 22 - 12 - 1007.3 1007.1 0.0
30/12:00pm 23.4 19.5 7.1 35 8.5 WSW 17 - 9 - 1007.8 1007.6 0.0
30/11:30am 22.5 18.3 8.2 40 7.5 WSW 20 - 11 - 1008.4 1008.2 0.0
30/11:00am 22.3 18.2 7.7 39 7.6 WSW 19 - 10 - 1008.8 1008.6 0.0
30/10:30am 21.4 17.1 6.9 39 7.4 WSW 19 - 10 - 1009.0 1008.8 0.0
30/10:00am 20.7 16.2 7.0 41 7.0 WSW 20 - 11 - 1009.2 1009.0 0.0
30/09:30am 19.8 15.4 7.2 44 6.4 WSW 20 - 11 - 1009.5 1009.3 0.0
30/09:00am 19.6 15.0 6.7 43 6.5 WSW 20 - 11 - 1009.6 1009.4 0.2
30/08:30am 18.0 12.7 6.8 48 5.6 W 24 - 13 - 1009.6 1009.4 0.2
30/08:00am 16.7 12.5 8.1 57 4.4 W 20 - 11 - 1009.6 1009.4 0.2
30/07:30am 16.0 12.2 9.0 63 3.6 W 19 - 10 - 1009.5 1009.3 0.2
30/07:00am 15.4 11.6 9.1 66 3.2 W 19 - 10 - 1009.4 1009.2 0.2
30/06:30am 15.4 12.0 9.3 67 3.1 W 17 - 9 - 1009.2 1009.0 0.2
30/06:00am 15.3 11.7 10.5 73 2.5 W 20 - 11 - 1009.1 1008.9 0.2
30/05:30am 15.5 12.1 10.7 73 2.5 W 19 - 10 - 1009.1 1008.9 0.2
30/05:00am 15.5 12.1 10.5 72 2.6 W 19 - 10 - 1009.0 1008.8 0.2
30/04:30am 15.7 12.6 10.2 70 2.9 W 17 - 9 - 1009.1 1008.9 0.2
30/04:00am 15.7 12.5 9.8 68 3.1 W 17 - 9 - 1009.3 1009.1 0.2
30/03:30am 16.0 13.0 9.4 65 3.4 W 15 - 8 - 1009.4 1009.2 0.2
30/03:00am 16.0 13.1 9.7 66 3.3 W 15 - 8 - 1009.7 1009.5 0.2
30/02:30am 16.2 12.9 9.4 64 3.5 W 17 - 9 - 1009.9 1009.7 0.2
30/02:00am 16.4 13.1 9.6 64 3.6 W 17 - 9 - 1010.2 1010.0 0.2
30/01:30am 16.7 13.2 10.1 65 3.5 W 19 - 10 - 1010.5 1010.3 0.2
30/01:00am 16.9 13.8 10.3 65 3.5 W 17 - 9 - 1010.8 1010.6 0.2
30/12:30am 17.1 13.9 10.0 63 3.8 W 17 - 9 - 1011.0 1010.8 0.2
30/12:00am 17.4 14.1 9.6 60 4.1 WSW 17 - 9 - 1011.2 1011.1 0.2
 
Date/Time
EDT
Temp
°C
App
Temp
°C
Dew
Point
Rel
Hum
%
Delta-T
°C
Wind Press
QNH
hPa
Press
MSL
hPa
Rain
since 9 am
mm
Dir
 
Spd
km/h
Gust
km/h
Spd
kts
Gust
kts
29/11:30pm 17.8 14.3 8.9 56 4.6 SW 17 - 9 - 1011.5 1011.4 0.2
29/11:00pm 18.1 14.6 8.9 55 4.8 SSW 17 - 9 - 1011.6 1011.5 0.2
29/10:30pm 18.5 13.8 9.3 55 4.8 SSW 24 - 13 - 1011.7 1011.6 0.2
29/10:00pm 18.7 13.4 9.8 56 4.7 S 28 - 15 - 1011.6 1011.5 0.2
29/09:30pm 19.1 13.9 10.1 56 4.8 SSW 28 - 15 - 1011.6 1011.5 0.2
29/09:00pm 19.3 13.4 10.6 57 4.7 S 32 - 17 - 1011.4 1011.3 0.2
29/08:30pm 19.4 15.0 10.4 56 4.9 S 24 - 13 - 1011.2 1011.1 0.2
29/08:00pm 19.7 14.1 11.5 59 4.5 S 32 - 17 - 1010.8 1010.6 0.2
29/07:30pm 19.9 14.0 10.6 55 5.1 S 32 - 17 - 1010.6 1010.4 0.2
29/07:00pm 20.4 14.6 10.8 54 5.3 S 32 - 17 - 1010.4 1010.2 0.2
29/06:30pm 20.8 15.0 10.9 53 5.4 S 32 - 17 - 1010.2 1010.0 0.2
29/06:00pm 21.2 15.6 10.1 49 6.0 S 30 - 16 - 1010.1 1009.9 0.2
29/05:30pm 22.3 16.4 10.5 47 6.5 S 32 - 17 - 1010.2 1010.0 0.2
29/05:00pm 22.4 16.4 10.2 46 6.7 S 32 - 17 - 1010.3 1010.1 0.2
29/04:30pm 22.4 16.3 9.6 44 6.9 S 32 - 17 - 1010.4 1010.2 0.2
29/04:00pm 22.8 16.7 10.6 46 6.7 S 33 - 18 - 1010.5 1010.3 0.2
29/03:30pm 22.4 15.8 9.9 45 6.8 S 35 - 19 - 1010.9 1010.7 0.2
29/03:00pm 22.1 15.6 10.3 47 6.5 S 35 - 19 - 1011.1 1011.0 0.2
29/02:30pm 22.2 15.1 9.4 44 6.9 S 37 - 20 - 1011.4 1011.3 0.2
29/02:00pm 23.3 17.0 9.0 40 7.7 S 32 - 17 - 1011.4 1011.3 0.2
29/01:30pm 23.3 18.4 8.6 39 7.8 S 24 - 13 - 1011.6 1011.5 0.2
29/01:00pm 22.8 16.5 7.4 37 8.0 S 30 - 16 - 1011.8 1011.7 0.2
29/12:30pm 23.3 18.4 10.0 43 7.3 S 26 - 14 - 1012.0 1011.9 0.2
29/12:00pm 23.1 17.7 8.0 38 8.0 S 26 - 14 - 1012.3 1012.2 0.2
29/11:30am 21.9 15.6 8.8 43 7.0 S 32 - 17 - 1012.4 1012.3 0.2
29/11:00am 21.7 15.9 7.9 41 7.2 SSW 28 - 15 - 1012.6 1012.5 0.2
29/10:30am 21.5 15.9 8.7 44 6.8 SSW 28 - 15 - 1012.8 1012.7 0.0
29/10:00am 20.2 15.7 8.5 47 6.1 SSW 22 - 12 - 1012.8 1012.7 0.0
29/09:30am 19.8 15.2 9.7 52 5.4 SSW 24 - 13 - 1013.0 1012.9 0.0
29/09:00am 19.0 15.7 9.5 54 5.0 SSW 17 - 9 - 1013.0 1012.9 16.0
29/08:30am 18.3 13.6 9.1 55 4.8 SW 24 - 13 - 1013.0 1012.9 16.0
29/08:00am 17.0 13.7 10.8 67 3.3 SW 19 - 10 - 1012.9 1012.8 16.0
29/07:30am 16.1 13.5 11.9 76 2.3 WSW 17 - 9 - 1012.7 1012.6 16.0
29/07:00am 15.2 12.0 12.0 81 1.7 W 20 - 11 - 1012.5 1012.4 16.0
29/06:30am 14.8 12.1 11.8 82 1.6 WSW 17 - 9 - 1012.2 1012.1 16.0

Other Formats:

Comma delimited format used in spreadsheet applications
http://www.bom.gov.au/fwo/IDN60801/IDN60801.94768.axf

JavaScript Object Notation format (JSON) in row-major order
http://www.bom.gov.au/fwo/IDN60801/IDN60801.94768.json